Time;durP1;ratioP1;P1;durP2;ratioP2;P2;SDS_P1;SDS_P2;PMS_P1;PMS_P2;Temp;Humidity;BMP_temperature;BMP_pressure;BME280_temperature;BME280_humidity;BME280_pressure;Samples;Min_cycle;Max_cycle;Signal;HPM_P1;HPM_P2
2022/09/21 00:00:33;;;;;;;5.85;2.08;;;;;;;;;;5017682;28;20035;-78
2022/09/21 00:02:59;;;;;;;3.90;2.40;;;;;;;;;;4985169;28;20116;-78
2022/09/21 00:05:24;;;;;;;6.30;2.30;;;;;;;;;;5017871;28;20560;-77
2022/09/21 00:07:50;;;;;;;4.65;2.58;;;;;;;;;;5001606;28;20124;-77
2022/09/21 00:10:18;;;;;;;5.30;2.05;;;;;;;;;;5017839;28;20108;-78
2022/09/21 00:12:46;;;;;;;4.13;2.20;;;;;;;;;;5018215;28;20207;-77
2022/09/21 00:15:11;;;;;;;3.92;2.55;;;;;;;;;;5018194;28;20067;-78
2022/09/21 00:17:37;;;;;;;2.92;2.05;;;;;;;;;;5017520;28;20116;-77
2022/09/21 00:20:05;;;;;;;3.90;2.55;;;;;;;;;;5012496;28;20043;-78
2022/09/21 00:22:32;;;;;;;3.67;2.35;;;;;;;;;;5004465;28;20054;-77
2022/09/21 00:24:57;;;;;;;4.65;2.55;;;;;;;;;;5021192;28;20033;-78
2022/09/21 00:27:28;;;;;;;4.80;2.45;;;;;;;;;;5001588;28;20022;-78
2022/09/21 00:29:57;;;;;;;4.68;2.80;;;;;;;;;;4982335;28;20081;-78
2022/09/21 00:32:26;;;;;;;4.57;2.53;;;;;;;;;;4981904;28;20033;-78
2022/09/21 00:34:52;;;;;;;4.10;2.42;;;;;;;;;;4998011;28;20059;-77
2022/09/21 00:37:19;;;;;;;5.40;2.70;;;;;;;;;;4997769;28;20033;-78
2022/09/21 00:39:44;;;;;;;6.38;2.80;;;;;;;;;;5013884;28;20065;-78
2022/09/21 00:42:24;;;;;;;4.78;2.30;;;;;;;;;;5014070;28;20064;-78
2022/09/21 00:44:50;;;;;;;3.83;2.67;;;;;;;;;;4998044;28;20395;-78
2022/09/21 00:47:18;;;;;;;4.70;2.75;;;;;;;;;;4997364;28;20033;-77
2022/09/21 00:49:48;;;;;;;4.18;2.33;;;;;;;;;;5009352;28;20511;-77
2022/09/21 00:52:13;;;;;;;5.07;2.40;;;;;;;;;;5001417;28;20123;-78
2022/09/21 00:54:45;;;;;;;3.65;2.47;;;;;;;;;;5001035;28;20076;-78
2022/09/21 00:57:11;;;;;;;3.22;2.50;;;;;;;;;;5017340;28;20044;-77
2022/09/21 00:59:37;;;;;;;4.00;2.55;;;;;;;;;;5016761;28;20082;-77
2022/09/21 01:02:03;;;;;;;3.83;2.40;;;;;;;;;;5000282;28;20057;-78
2022/09/21 01:04:29;;;;;;;3.83;2.22;;;;;;;;;;5000980;28;20071;-77
2022/09/21 01:06:55;;;;;;;4.18;2.47;;;;;;;;;;5017359;28;20049;-77
2022/09/21 01:09:21;;;;;;;4.60;2.40;;;;;;;;;;5000572;28;20080;-77
2022/09/21 01:12:25;;;;;;;5.18;2.60;;;;;;;;;;5016912;28;20029;-77
2022/09/21 01:15:25;;;;;;;4.45;2.47;;;;;;;;;;5025668;28;20120;-77
2022/09/21 01:18:14;;;;;;;4.22;2.50;;;;;;;;;;5033013;28;20120;-78
2022/09/21 01:21:14;;;;;;;5.32;2.85;;;;;;;;;;5035408;28;20091;-77
2022/09/21 01:24:07;;;;;;;3.75;2.35;;;;;;;;;;5052866;28;20031;-77
2022/09/21 01:26:51;;;;;;;3.63;2.28;;;;;;;;;;5062279;28;20033;-77
2022/09/21 01:29:19;;;;;;;5.00;2.88;;;;;;;;;;5050677;28;20037;-78
2022/09/21 01:31:54;;;;;;;4.38;2.97;;;;;;;;;;5016920;28;20472;-77
2022/09/21 01:34:49;;;;;;;4.07;2.45;;;;;;;;;;5033378;28;20036;-77
2022/09/21 01:37:21;;;;;;;3.63;2.35;;;;;;;;;;5047932;28;20036;-78
2022/09/21 01:39:48;;;;;;;8.48;3.05;;;;;;;;;;5000637;28;20471;-77
2022/09/21 01:42:14;;;;;;;4.90;2.92;;;;;;;;;;5016768;28;20037;-78
2022/09/21 01:44:40;;;;;;;4.30;2.40;;;;;;;;;;5000379;28;20368;-78
2022/09/21 01:47:07;;;;;;;4.60;2.55;;;;;;;;;;5016651;28;20033;-78
2022/09/21 01:49:41;;;;;;;6.00;2.40;;;;;;;;;;5013485;28;20479;-78
2022/09/21 01:52:24;;;;;;;4.75;2.53;;;;;;;;;;4997838;28;20116;-77
2022/09/21 01:54:52;;;;;;;3.80;2.25;;;;;;;;;;5013776;28;20033;-78
2022/09/21 01:57:23;;;;;;;4.68;2.53;;;;;;;;;;4997088;28;20049;-77
2022/09/21 01:59:55;;;;;;;4.63;2.40;;;;;;;;;;5015365;28;20029;-77
2022/09/21 02:02:41;;;;;;;5.68;2.58;;;;;;;;;;5000195;28;20034;-78
2022/09/21 02:05:06;;;;;;;4.35;2.05;;;;;;;;;;4985456;28;20049;-78
2022/09/21 02:07:32;;;;;;;4.05;2.33;;;;;;;;;;5003447;28;20112;-78
2022/09/21 02:09:59;;;;;;;5.55;2.28;;;;;;;;;;5003698;28;20029;-78
2022/09/21 02:12:24;;;;;;;4.50;2.65;;;;;;;;;;5003811;28;20040;-78
2022/09/21 02:14:54;;;;;;;4.35;2.70;;;;;;;;;;5003423;28;20107;-77
2022/09/21 02:17:41;;;;;;;3.60;2.20;;;;;;;;;;4988347;28;20426;-78
2022/09/21 02:20:23;;;;;;;3.65;2.63;;;;;;;;;;5008796;28;20387;-77
2022/09/21 02:23:22;;;;;;;4.47;2.30;;;;;;;;;;5000492;28;20030;-77
2022/09/21 02:25:58;;;;;;;4.00;2.45;;;;;;;;;;5002995;28;20168;-78
2022/09/21 02:28:38;;;;;;;4.05;2.22;;;;;;;;;;5003715;28;20124;-77
2022/09/21 02:31:12;;;;;;;4.68;2.63;;;;;;;;;;5053916;28;20048;-77
2022/09/21 02:33:59;;;;;;;4.47;2.47;;;;;;;;;;5019184;28;20056;-78
2022/09/21 02:36:36;;;;;;;3.35;2.20;;;;;;;;;;5022115;28;20036;-78
2022/09/21 02:39:07;;;;;;;2.92;1.95;;;;;;;;;;5003666;28;20020;-77
2022/09/21 02:41:44;;;;;;;3.30;2.15;;;;;;;;;;5003158;28;20029;-78
2022/09/21 02:44:19;;;;;;;4.43;2.22;;;;;;;;;;5002965;28;20108;-78
2022/09/21 02:47:00;;;;;;;3.50;2.10;;;;;;;;;;5036254;28;20037;-78
2022/09/21 02:49:37;;;;;;;3.50;2.30;;;;;;;;;;5003446;28;20021;-78
2022/09/21 02:52:09;;;;;;;3.25;1.73;;;;;;;;;;5019510;28;20909;-78
2022/09/21 02:54:34;;;;;;;3.40;2.20;;;;;;;;;;5035545;28;20036;-77
2022/09/21 02:57:00;;;;;;;2.97;1.77;;;;;;;;;;5019204;28;20175;-78
2022/09/21 02:59:26;;;;;;;3.47;2.22;;;;;;;;;;5036051;28;20387;-77
2022/09/21 03:01:51;;;;;;;2.95;2.00;;;;;;;;;;5018212;28;20036;-77
2022/09/21 03:04:17;;;;;;;2.85;1.88;;;;;;;;;;4986851;28;20028;-78
2022/09/21 03:06:42;;;;;;;5.07;2.05;;;;;;;;;;4986438;28;20033;-78
2022/09/21 03:09:08;;;;;;;4.97;2.20;;;;;;;;;;5002033;28;20577;-77
2022/09/21 03:11:34;;;;;;;2.63;2.05;;;;;;;;;;5034303;28;20079;-78
2022/09/21 03:14:04;;;;;;;4.57;2.28;;;;;;;;;;5002482;28;20029;-77
2022/09/21 03:16:30;;;;;;;3.25;2.13;;;;;;;;;;5019637;28;20044;-78
2022/09/21 03:18:55;;;;;;;5.32;2.30;;;;;;;;;;5021346;28;20044;-77
2022/09/21 03:21:21;;;;;;;3.50;2.33;;;;;;;;;;5022375;28;20028;-77
2022/09/21 03:23:46;;;;;;;3.28;2.20;;;;;;;;;;5021753;28;20032;-77
2022/09/21 03:26:11;;;;;;;3.13;2.25;;;;;;;;;;5028645;28;20060;-78
2022/09/21 03:28:37;;;;;;;4.32;1.95;;;;;;;;;;4998905;28;20034;-78
2022/09/21 03:31:02;;;;;;;2.70;2.10;;;;;;;;;;5014972;28;20416;-77
2022/09/21 03:33:28;;;;;;;4.28;2.03;;;;;;;;;;4998729;28;20480;-78
2022/09/21 03:35:53;;;;;;;3.80;2.15;;;;;;;;;;5015114;28;20049;-78
2022/09/21 03:38:20;;;;;;;3.65;1.98;;;;;;;;;;5014567;28;20391;-77
2022/09/21 03:40:46;;;;;;;4.13;2.10;;;;;;;;;;5014698;28;20056;-77
2022/09/21 03:43:11;;;;;;;3.97;2.10;;;;;;;;;;5014722;28;20468;-77
2022/09/21 03:45:39;;;;;;;3.47;2.00;;;;;;;;;;4998532;28;20046;-77
2022/09/21 03:48:05;;;;;;;3.60;2.10;;;;;;;;;;4998655;28;20018;-78
2022/09/21 03:50:30;;;;;;;4.43;1.88;;;;;;;;;;5030062;28;20025;-77
2022/09/21 03:52:56;;;;;;;3.00;2.00;;;;;;;;;;5030880;28;20029;-77
2022/09/21 03:55:21;;;;;;;2.60;1.88;;;;;;;;;;5022099;28;20056;-78
2022/09/21 03:57:47;;;;;;;3.58;2.20;;;;;;;;;;5034449;28;20112;-78
2022/09/21 04:00:12;;;;;;;3.05;1.60;;;;;;;;;;5018102;28;20064;-78
2022/09/21 04:02:40;;;;;;;3.58;1.92;;;;;;;;;;5001040;28;20403;-77
2022/09/21 04:05:10;;;;;;;2.83;1.65;;;;;;;;;;5002467;28;20044;-77
2022/09/21 04:07:36;;;;;;;2.88;1.42;;;;;;;;;;5017624;28;20426;-78
2022/09/21 04:10:05;;;;;;;2.70;1.70;;;;;;;;;;5017088;28;20029;-77
2022/09/21 04:12:35;;;;;;;3.88;1.75;;;;;;;;;;5017494;28;20033;-77
2022/09/21 04:15:00;;;;;;;3.22;1.83;;;;;;;;;;5018180;28;20036;-78
2022/09/21 04:17:26;;;;;;;3.30;2.13;;;;;;;;;;5001093;28;20063;-78
2022/09/21 04:19:52;;;;;;;3.22;2.10;;;;;;;;;;5011299;28;20024;-78
2022/09/21 04:22:18;;;;;;;3.78;1.77;;;;;;;;;;5020254;28;20063;-77
2022/09/21 04:24:43;;;;;;;3.58;1.95;;;;;;;;;;5020636;28;20056;-77
2022/09/21 04:27:09;;;;;;;2.78;1.75;;;;;;;;;;5003128;28;20384;-77
2022/09/21 04:29:34;;;;;;;2.70;2.00;;;;;;;;;;4997851;28;20041;-77
2022/09/21 04:32:00;;;;;;;2.42;1.75;;;;;;;;;;4981255;28;20061;-77
2022/09/21 04:34:26;;;;;;;2.90;1.90;;;;;;;;;;5014317;28;20500;-78
2022/09/21 04:36:53;;;;;;;3.85;2.10;;;;;;;;;;4997677;28;20037;-78
2022/09/21 04:39:19;;;;;;;2.88;1.92;;;;;;;;;;4981813;28;20543;-78
2022/09/21 04:41:44;;;;;;;3.25;1.73;;;;;;;;;;4981833;28;20036;-77
2022/09/21 04:44:10;;;;;;;3.85;1.70;;;;;;;;;;4997745;28;20037;-78
2022/09/21 04:46:35;;;;;;;2.40;1.80;;;;;;;;;;4997838;28;20036;-78
2022/09/21 04:49:01;;;;;;;4.00;1.55;;;;;;;;;;4999301;28;20121;-78
2022/09/21 04:51:27;;;;;;;2.75;1.50;;;;;;;;;;5014016;28;20030;-78
2022/09/21 04:53:52;;;;;;;2.97;1.67;;;;;;;;;;5013663;28;20080;-77
2022/09/21 04:56:18;;;;;;;3.10;1.70;;;;;;;;;;5030517;28;20076;-77
2022/09/21 04:58:43;;;;;;;2.28;1.45;;;;;;;;;;4997448;28;20041;-77
2022/09/21 05:01:10;;;;;;;2.90;1.52;;;;;;;;;;4984223;28;20041;-77
2022/09/21 05:03:36;;;;;;;3.03;1.75;;;;;;;;;;4984413;28;20482;-77
2022/09/21 05:06:02;;;;;;;3.50;1.80;;;;;;;;;;5000855;28;20021;-77
2022/09/21 05:11:13;;;;;;;3.97;1.90;;;;;;;;;;5022156;28;20029;-77
2022/09/21 05:13:39;;;;;;;1.85;1.50;;;;;;;;;;5016914;28;20511;-78
2022/09/21 05:16:04;;;;;;;3.60;1.83;;;;;;;;;;5017093;28;20041;-78
2022/09/21 05:18:30;;;;;;;3.80;2.45;;;;;;;;;;5011948;28;20045;-78
2022/09/21 05:20:55;;;;;;;2.70;1.63;;;;;;;;;;5013348;28;20113;-77
2022/09/21 05:23:22;;;;;;;3.00;1.67;;;;;;;;;;5009586;28;20470;-77
2022/09/21 05:25:47;;;;;;;2.72;1.60;;;;;;;;;;5049264;28;20479;-77
2022/09/21 05:28:13;;;;;;;5.00;1.70;;;;;;;;;;5010314;28;20039;-77
2022/09/21 05:30:39;;;;;;;2.97;1.73;;;;;;;;;;5025761;28;20032;-77
2022/09/21 05:33:04;;;;;;;2.75;1.98;;;;;;;;;;5001757;28;20048;-77
2022/09/21 05:35:49;;;;;;;3.92;2.00;;;;;;;;;;5028118;28;20029;-77
2022/09/21 05:38:16;;;;;;;6.05;2.20;;;;;;;;;;5035225;28;20037;-79
2022/09/21 05:40:42;;;;;;;5.60;2.55;;;;;;;;;;5023082;28;20025;-78
2022/09/21 05:43:09;;;;;;;7.97;3.13;;;;;;;;;;5026274;28;20127;-78
2022/09/21 05:45:34;;;;;;;5.22;2.40;;;;;;;;;;5025761;28;20482;-78
2022/09/21 05:48:13;;;;;;;5.80;2.83;;;;;;;;;;5023938;28;20040;-78
2022/09/21 05:50:45;;;;;;;9.60;2.60;;;;;;;;;;5018342;28;20025;-78
2022/09/21 05:53:29;;;;;;;5.60;2.60;;;;;;;;;;5031831;28;20100;-78
2022/09/21 05:56:02;;;;;;;6.68;2.75;;;;;;;;;;5047332;28;20108;-78
2022/09/21 05:58:51;;;;;;;6.22;2.65;;;;;;;;;;5025323;28;20041;-78
2022/09/21 06:01:17;;;;;;;10.30;3.15;;;;;;;;;;5063899;28;20033;-78
2022/09/21 06:03:42;;;;;;;7.82;3.00;;;;;;;;;;5065877;28;20087;-78
2022/09/21 06:06:08;;;;;;;8.13;3.47;;;;;;;;;;5023785;28;20038;-78
2022/09/21 06:08:34;;;;;;;6.20;2.67;;;;;;;;;;5022560;28;20579;-78
2022/09/21 06:10:59;;;;;;;3.72;2.35;;;;;;;;;;5039499;28;20024;-77
2022/09/21 06:13:25;;;;;;;7.45;2.85;;;;;;;;;;5039526;28;20052;-77
2022/09/21 06:15:51;;;;;;;8.43;2.85;;;;;;;;;;5039811;28;20455;-78
2022/09/21 06:18:16;;;;;;;9.80;2.40;;;;;;;;;;5039559;28;20036;-76
2022/09/21 06:20:42;;;;;;;8.27;2.60;;;;;;;;;;5019216;28;20025;-77
2022/09/21 06:23:08;;;;;;;8.90;2.47;;;;;;;;;;5015614;28;20033;-76
2022/09/21 06:25:34;;;;;;;8.15;3.28;;;;;;;;;;5016338;28;20038;-78
2022/09/21 06:28:10;;;;;;;5.97;2.25;;;;;;;;;;5035870;28;20115;-78
2022/09/21 06:30:35;;;;;;;6.85;2.50;;;;;;;;;;5018435;28;20071;-78
2022/09/21 06:33:01;;;;;;;8.55;2.50;;;;;;;;;;5018740;28;20068;-78
2022/09/21 06:35:27;;;;;;;6.03;2.78;;;;;;;;;;5015604;28;20025;-78
2022/09/21 06:37:57;;;;;;;8.80;2.28;;;;;;;;;;4999379;28;20387;-77
2022/09/21 06:40:22;;;;;;;7.40;2.53;;;;;;;;;;4998728;28;20065;-78
2022/09/21 06:42:48;;;;;;;5.07;1.90;;;;;;;;;;5031783;28;20208;-78
2022/09/21 06:45:13;;;;;;;7.82;2.33;;;;;;;;;;5014870;28;20452;-78
2022/09/21 06:47:39;;;;;;;5.25;2.10;;;;;;;;;;5018429;28;20041;-78
2022/09/21 06:50:05;;;;;;;2.90;1.88;;;;;;;;;;5002271;28;20204;-78
2022/09/21 06:52:30;;;;;;;5.32;1.98;;;;;;;;;;5018927;28;20449;-78
2022/09/21 06:54:56;;;;;;;7.43;2.38;;;;;;;;;;5002602;28;20028;-78
2022/09/21 06:57:22;;;;;;;4.70;1.83;;;;;;;;;;5035622;28;20120;-78
2022/09/21 06:59:48;;;;;;;5.75;2.05;;;;;;;;;;5019719;28;20028;-78
2022/09/21 07:02:14;;;;;;;4.22;1.70;;;;;;;;;;5002128;28;20146;-78
2022/09/21 07:04:40;;;;;;;5.32;1.95;;;;;;;;;;5035733;28;20068;-78
2022/09/21 07:07:06;;;;;;;6.22;1.90;;;;;;;;;;5002710;28;20040;-78
2022/09/21 07:09:31;;;;;;;4.72;2.17;;;;;;;;;;5018425;28;20033;-78
2022/09/21 07:11:57;;;;;;;4.70;2.13;;;;;;;;;;5018707;28;20033;-78
2022/09/21 07:14:22;;;;;;;3.88;1.75;;;;;;;;;;5018544;28;20091;-78
2022/09/21 07:16:48;;;;;;;4.15;1.55;;;;;;;;;;5015304;28;20094;-77
2022/09/21 07:19:13;;;;;;;3.65;1.70;;;;;;;;;;5033349;28;20368;-78
2022/09/21 07:21:40;;;;;;;2.85;1.42;;;;;;;;;;5037919;28;20032;-78
2022/09/21 07:24:06;;;;;;;3.95;1.90;;;;;;;;;;5034980;28;20111;-78
2022/09/21 07:26:33;;;;;;;3.08;1.40;;;;;;;;;;5015085;28;20083;-77
2022/09/21 07:28:58;;;;;;;3.35;1.35;;;;;;;;;;4999332;28;20037;-78
2022/09/21 07:31:24;;;;;;;4.07;1.70;;;;;;;;;;4998181;28;20549;-77
2022/09/21 07:33:49;;;;;;;4.13;1.88;;;;;;;;;;4982473;28;20025;-77
2022/09/21 07:36:16;;;;;;;4.45;1.60;;;;;;;;;;5018382;28;20109;-77
2022/09/21 07:38:42;;;;;;;6.20;1.95;;;;;;;;;;5018771;28;20037;-77
2022/09/21 07:41:12;;;;;;;3.75;1.45;;;;;;;;;;5018485;28;20033;-79
2022/09/21 07:43:40;;;;;;;4.43;1.75;;;;;;;;;;5018346;28;20033;-79
2022/09/21 07:46:10;;;;;;;6.40;1.55;;;;;;;;;;5002920;28;20465;-78
2022/09/21 07:48:35;;;;;;;10.82;1.98;;;;;;;;;;5019563;28;20037;-78
2022/09/21 07:51:05;;;;;;;6.30;1.52;;;;;;;;;;5018800;28;20033;-79
2022/09/21 07:53:35;;;;;;;8.10;1.83;;;;;;;;;;5000973;28;20025;-79
2022/09/21 07:56:04;;;;;;;11.48;2.08;;;;;;;;;;5001821;28;20044;-79
2022/09/21 08:01:27;;;;;;;10.52;2.40;;;;;;;;;;4987599;28;20045;-79
2022/09/21 08:03:54;;;;;;;8.35;2.03;;;;;;;;;;5001365;28;20025;-79
2022/09/21 08:06:20;;;;;;;5.50;1.90;;;;;;;;;;5017777;28;20098;-79
2022/09/21 08:08:49;;;;;;;10.95;2.15;;;;;;;;;;5001603;28;20100;-79
2022/09/21 08:11:21;;;;;;;7.43;1.98;;;;;;;;;;5033988;28;20167;-80
2022/09/21 08:14:07;;;;;;;13.98;2.50;;;;;;;;;;5002018;28;20036;-80
2022/09/21 08:16:32;;;;;;;10.45;2.13;;;;;;;;;;5016719;28;20056;-80
2022/09/21 08:18:58;;;;;;;5.82;2.00;;;;;;;;;;5028802;28;20064;-81
2022/09/21 08:21:24;;;;;;;11.75;1.85;;;;;;;;;;5021752;28;20025;-82
2022/09/21 08:23:49;;;;;;;5.25;1.83;;;;;;;;;;5021774;28;20139;-82
2022/09/21 08:26:20;;;;;;;6.43;1.40;;;;;;;;;;5007625;28;20064;-81
2022/09/21 08:28:48;;;;;;;5.45;1.67;;;;;;;;;;5020094;28;20127;-82
2022/09/21 08:31:13;;;;;;;3.88;1.70;;;;;;;;;;5018941;28;20030;-80
2022/09/21 08:33:39;;;;;;;5.65;1.83;;;;;;;;;;4985019;28;20025;-80
2022/09/21 08:36:04;;;;;;;9.52;1.70;;;;;;;;;;5002662;28;20047;-82
2022/09/21 08:38:34;;;;;;;6.30;1.83;;;;;;;;;;5018519;28;20033;-81
2022/09/21 08:41:00;;;;;;;7.32;1.60;;;;;;;;;;5001195;28;20036;-81
2022/09/21 08:43:34;;;;;;;6.50;1.98;;;;;;;;;;5001024;28;20383;-81
2022/09/21 08:45:59;;;;;;;12.68;2.72;;;;;;;;;;5000746;28;20041;-81
2022/09/21 08:48:28;;;;;;;6.22;1.92;;;;;;;;;;4983979;28;20372;-81
2022/09/21 08:50:54;;;;;;;4.90;1.50;;;;;;;;;;5017239;28;20538;-81
2022/09/21 08:53:38;;;;;;;5.55;1.35;;;;;;;;;;5000578;28;20032;-81
2022/09/21 08:56:05;;;;;;;5.38;1.48;;;;;;;;;;5016784;28;20029;-81
2022/09/21 08:58:31;;;;;;;6.32;1.60;;;;;;;;;;5002757;28;20482;-81
2022/09/21 09:01:18;;;;;;;4.43;1.60;;;;;;;;;;5018939;28;20025;-81
2022/09/21 09:04:10;;;;;;;3.60;1.60;;;;;;;;;;5019343;28;20029;-81
2022/09/21 09:06:57;;;;;;;7.72;2.92;;;;;;;;;;5016760;28;20032;-80
2022/09/21 09:10:01;;;;;;;4.75;2.10;;;;;;;;;;5016840;28;20438;-80
2022/09/21 09:12:52;;;;;;;5.57;2.08;;;;;;;;;;5012737;28;20127;-80
2022/09/21 09:15:25;;;;;;;9.65;2.95;;;;;;;;;;5021150;28;20390;-81
2022/09/21 09:18:00;;;;;;;;;;;;;;;;;;5004590;28;20487;-81
2022/09/21 09:20:32;;;;;;;8.88;2.95;;;;;;;;;;5017097;28;20433;-81
2022/09/21 09:23:18;;;;;;;6.72;2.55;;;;;;;;;;5001242;28;20045;-80
2022/09/21 09:25:46;;;;;;;7.32;2.13;;;;;;;;;;5003966;28;20038;-80
2022/09/21 09:28:29;;;;;;;5.80;2.50;;;;;;;;;;5004544;28;20105;-80
2022/09/21 09:31:23;;;;;;;8.73;2.80;;;;;;;;;;5021296;28;20063;-80
2022/09/21 09:33:59;;;;;;;7.00;2.75;;;;;;;;;;5017582;28;20104;-81
2022/09/21 09:36:29;;;;;;;5.82;2.92;;;;;;;;;;5004653;28;20045;-80
2022/09/21 09:38:56;;;;;;;4.72;2.38;;;;;;;;;;5020622;28;20033;-80
2022/09/21 09:41:41;;;;;;;6.78;2.30;;;;;;;;;;5020123;28;20475;-81
2022/09/21 09:44:14;;;;;;;8.50;2.45;;;;;;;;;;5006354;28;20036;-81
2022/09/21 09:47:08;;;;;;;5.50;2.20;;;;;;;;;;5037414;28;20041;-80
2022/09/21 09:49:51;;;;;;;6.68;2.13;;;;;;;;;;5005650;28;20383;-80
2022/09/21 09:52:17;;;;;;;6.80;2.55;;;;;;;;;;5020541;28;20064;-80
2022/09/21 09:54:42;;;;;;;6.32;2.00;;;;;;;;;;5006064;28;20063;-80
2022/09/21 09:57:08;;;;;;;5.28;2.78;;;;;;;;;;5020720;28;20083;-80
2022/09/21 09:59:41;;;;;;;6.70;2.33;;;;;;;;;;5006071;28;20045;-80
2022/09/21 10:02:18;;;;;;;5.22;1.75;;;;;;;;;;5006212;28;20124;-80
2022/09/21 10:05:00;;;;;;;6.68;2.28;;;;;;;;;;5004045;28;20395;-80
2022/09/21 10:07:41;;;;;;;6.13;1.60;;;;;;;;;;5008600;28;20025;-79
2022/09/21 10:10:28;;;;;;;6.10;1.98;;;;;;;;;;5020169;28;20036;-81
2022/09/21 10:13:11;;;;;;;4.75;1.73;;;;;;;;;;5019042;28;20107;-80
2022/09/21 10:16:01;;;;;;;8.00;1.63;;;;;;;;;;4986351;28;20040;-80
2022/09/21 10:18:39;;;;;;;4.32;1.48;;;;;;;;;;5038233;28;20410;-80
2022/09/21 10:21:07;;;;;;;4.82;1.90;;;;;;;;;;5033063;28;20033;-80
2022/09/21 10:23:32;;;;;;;4.47;1.52;;;;;;;;;;5000052;28;20553;-80
2022/09/21 10:26:04;;;;;;;4.00;1.88;;;;;;;;;;5020605;28;20115;-80
2022/09/21 10:28:30;;;;;;;5.13;1.65;;;;;;;;;;5003914;28;20037;-80
2022/09/21 10:31:08;;;;;;;4.05;1.30;;;;;;;;;;5019602;28;20859;-80
2022/09/21 10:33:45;;;;;;;6.40;1.45;;;;;;;;;;5035883;28;20037;-80
2022/09/21 10:36:31;;;;;;;4.60;1.40;;;;;;;;;;5003383;28;20080;-80
2022/09/21 10:39:18;;;;;;;5.22;1.67;;;;;;;;;;5018575;28;20042;-80
2022/09/21 10:41:48;;;;;;;8.68;1.75;;;;;;;;;;5034969;28;20039;-79
2022/09/21 10:44:18;;;;;;;8.75;2.03;;;;;;;;;;5039412;28;20033;-78
2022/09/21 10:46:44;;;;;;;7.78;1.70;;;;;;;;;;5022220;28;20395;-78
2022/09/21 10:49:16;;;;;;;7.03;2.10;;;;;;;;;;5033731;28;20494;-78
2022/09/21 10:51:43;;;;;;;7.55;2.08;;;;;;;;;;5035826;28;20056;-78
2022/09/21 10:54:09;;;;;;;11.57;2.28;;;;;;;;;;5017824;28;20032;-78
2022/09/21 10:56:34;;;;;;;11.82;2.30;;;;;;;;;;5002989;28;20487;-78
2022/09/21 10:59:12;;;;;;;11.70;1.98;;;;;;;;;;5002989;28;20040;-78
2022/09/21 11:01:48;;;;;;;7.00;1.45;;;;;;;;;;5019205;28;20100;-79
2022/09/21 11:04:37;;;;;;;7.38;1.70;;;;;;;;;;4986956;28;20067;-78
2022/09/21 11:07:08;;;;;;;8.25;1.42;;;;;;;;;;5018889;28;20036;-78
2022/09/21 11:09:42;;;;;;;10.75;2.10;;;;;;;;;;5017629;28;20498;-78
2022/09/21 11:12:15;;;;;;;11.32;1.58;;;;;;;;;;5035184;28;20032;-78
2022/09/21 11:14:42;;;;;;;;;;;;;;;;;;5035738;28;20095;-78
2022/09/21 11:17:12;;;;;;;4.70;1.40;;;;;;;;;;5022352;28;19913;-78
2022/09/21 11:19:48;;;;;;;5.72;1.42;;;;;;;;;;5014408;28;20031;-78
2022/09/21 11:22:32;;;;;;;6.55;1.23;;;;;;;;;;5038442;28;20114;-78
2022/09/21 11:25:42;;;;;;;14.35;2.03;;;;;;;;;;5055254;28;20033;-77
2022/09/21 11:28:29;;;;;;;8.90;1.55;;;;;;;;;;5030055;28;20041;-78
2022/09/21 11:31:10;;;;;;;6.75;2.13;;;;;;;;;;4992768;28;20048;-78
2022/09/21 11:34:18;;;;;;;13.05;2.40;;;;;;;;;;5028668;28;20514;-78
2022/09/21 11:36:52;;;;;;;7.13;1.67;;;;;;;;;;4996779;28;20041;-78
2022/09/21 11:39:26;;;;;;;6.68;1.35;;;;;;;;;;5051951;28;20048;-79
2022/09/21 11:41:55;;;;;;;7.47;1.60;;;;;;;;;;5035163;28;20036;-78
2022/09/21 11:44:48;;;;;;;4.95;1.25;;;;;;;;;;5034362;28;20491;-77
2022/09/21 11:47:39;;;;;;;7.70;2.33;;;;;;;;;;5034371;28;20025;-78
2022/09/21 11:50:07;;;;;;;6.25;1.55;;;;;;;;;;5018278;28;20039;-78
2022/09/21 11:52:58;;;;;;;6.65;1.58;;;;;;;;;;5014231;28;20116;-78
2022/09/21 11:55:40;;;;;;;7.28;1.25;;;;;;;;;;5011102;28;20043;-78
2022/09/21 11:58:17;;;;;;;4.93;1.40;;;;;;;;;;5031255;28;20045;-78
2022/09/21 12:00:57;;;;;;;4.15;1.23;;;;;;;;;;5028257;28;20029;-77
2022/09/21 12:03:37;;;;;;;5.18;1.77;;;;;;;;;;5018613;28;20037;-78
2022/09/21 12:06:24;;;;;;;5.45;1.73;;;;;;;;;;5018560;28;20024;-78
2022/09/21 12:09:08;;;;;;;5.53;1.52;;;;;;;;;;5034440;28;20553;-78
2022/09/21 12:11:39;;;;;;;3.95;1.42;;;;;;;;;;5000843;28;20112;-78
2022/09/21 12:14:10;;;;;;;7.63;2.17;;;;;;;;;;5034160;28;20060;-78
2022/09/21 12:16:59;;;;;;;8.40;1.83;;;;;;;;;;5052366;28;20488;-78
2022/09/21 12:19:43;;;;;;;10.02;1.90;;;;;;;;;;5015674;28;20554;-77
2022/09/21 12:22:21;;;;;;;3.72;1.15;;;;;;;;;;5015169;28;20373;-78
2022/09/21 12:25:19;;;;;;;7.57;1.45;;;;;;;;;;5015034;28;20088;-79
2022/09/21 12:27:50;;;;;;;11.40;2.20;;;;;;;;;;5018142;28;20061;-78
2022/09/21 12:30:22;;;;;;;8.10;1.98;;;;;;;;;;4981908;28;20030;-78
2022/09/21 12:33:04;;;;;;;4.93;1.88;;;;;;;;;;5014625;28;20037;-79
2022/09/21 12:35:35;;;;;;;4.90;1.23;;;;;;;;;;4997780;28;20041;-78
2022/09/21 12:38:06;;;;;;;6.38;1.58;;;;;;;;;;5013988;28;20056;-78
2022/09/21 12:40:37;;;;;;;3.45;1.40;;;;;;;;;;5013860;28;20104;-78
2022/09/21 12:43:14;;;;;;;6.53;1.45;;;;;;;;;;4980862;28;20057;-78
2022/09/21 12:45:46;;;;;;;5.15;1.70;;;;;;;;;;5013651;28;20072;-78
2022/09/21 12:48:15;;;;;;;3.10;0.90;;;;;;;;;;4997539;28;20037;-78
2022/09/21 12:50:47;;;;;;;7.68;1.10;;;;;;;;;;5031603;28;20035;-78
2022/09/21 12:53:18;;;;;;;8.55;1.20;;;;;;;;;;5029811;28;20453;-77
2022/09/21 12:56:40;;;;;;;6.03;1.00;;;;;;;;;;5013700;28;20504;-77
2022/09/21 12:59:26;;;;;;;3.65;1.80;;;;;;;;;;4915913;29;20549;-78
2022/09/21 13:02:12;;;;;;;4.38;1.13;;;;;;;;;;4997226;28;20033;-77
2022/09/21 13:04:52;;;;;;;7.15;1.63;;;;;;;;;;5016113;28;20036;-77
2022/09/21 13:07:23;;;;;;;3.83;1.20;;;;;;;;;;5033823;28;20104;-77
2022/09/21 13:09:49;;;;;;;5.40;0.95;;;;;;;;;;5015376;28;20033;-77
2022/09/21 13:12:26;;;;;;;7.05;1.13;;;;;;;;;;5017597;28;20072;-78
2022/09/21 13:15:04;;;;;;;4.97;1.20;;;;;;;;;;4984384;28;20111;-78
2022/09/21 13:17:30;;;;;;;4.65;1.60;;;;;;;;;;5009395;28;20040;-77
2022/09/21 13:20:05;;;;;;;9.32;1.65;;;;;;;;;;5019079;28;20371;-78
2022/09/21 13:22:32;;;;;;;6.50;1.63;;;;;;;;;;5052217;28;20039;-77
2022/09/21 13:25:05;;;;;;;9.45;1.42;;;;;;;;;;5033069;28;20029;-78
2022/09/21 13:28:03;;;;;;;4.40;1.08;;;;;;;;;;4998694;28;20106;-78
2022/09/21 13:30:47;;;;;;;25.63;9.40;;;;;;;;;;5055947;28;20033;-78
2022/09/21 13:33:19;;;;;;;62.47;22.80;;;;;;;;;;5036151;28;20063;-79
2022/09/21 13:35:49;;;;;;;31.45;14.23;;;;;;;;;;5070496;28;20037;-78
2022/09/21 13:38:53;;;;;;;22.17;10.27;;;;;;;;;;5020208;28;20078;-78
2022/09/21 13:41:18;;;;;;;26.23;8.13;;;;;;;;;;5051499;28;20032;-77
2022/09/21 13:43:47;;;;;;;20.40;7.47;;;;;;;;;;5066139;28;20028;-78
2022/09/21 13:46:34;;;;;;;19.85;6.90;;;;;;;;;;5051787;28;20098;-78
2022/09/21 13:49:09;;;;;;;17.77;6.93;;;;;;;;;;5070868;28;20059;-77
2022/09/21 13:51:53;;;;;;;24.95;8.30;;;;;;;;;;5049035;28;20036;-79
2022/09/21 13:54:19;;;;;;;22.58;7.15;;;;;;;;;;5015298;28;20025;-77
2022/09/21 13:56:45;;;;;;;21.92;8.52;;;;;;;;;;5036764;28;20055;-77
2022/09/21 13:59:21;;;;;;;20.58;7.70;;;;;;;;;;5029314;28;20039;-77
2022/09/21 14:01:46;;;;;;;16.75;6.38;;;;;;;;;;5056569;28;20078;-77
2022/09/21 14:04:19;;;;;;;15.70;7.15;;;;;;;;;;5039832;28;20422;-77
2022/09/21 14:06:46;;;;;;;14.65;6.47;;;;;;;;;;5024054;28;20037;-77
2022/09/21 14:09:22;;;;;;;16.90;6.35;;;;;;;;;;5039759;28;20122;-78
2022/09/21 14:12:00;;;;;;;18.63;6.40;;;;;;;;;;5055808;28;20028;-78
2022/09/21 14:14:36;;;;;;;15.38;5.18;;;;;;;;;;5041052;28;20068;-78
2022/09/21 14:17:02;;;;;;;12.82;4.53;;;;;;;;;;5049572;28;20036;-78
2022/09/21 14:19:31;;;;;;;17.92;5.72;;;;;;;;;;5026517;28;20029;-78
2022/09/21 14:22:06;;;;;;;20.55;6.22;;;;;;;;;;5074116;28;20042;-77
2022/09/21 14:24:51;;;;;;;13.43;4.93;;;;;;;;;;5068004;28;20025;-77
2022/09/21 14:27:27;;;;;;;14.02;5.18;;;;;;;;;;5046126;28;20032;-78
2022/09/21 14:29:55;;;;;;;11.43;4.85;;;;;;;;;;5039166;28;20059;-77
2022/09/21 14:32:25;;;;;;;13.65;5.10;;;;;;;;;;5035660;28;20087;-78
2022/09/21 14:34:54;;;;;;;11.77;5.20;;;;;;;;;;5018348;28;20036;-78
2022/09/21 14:37:32;;;;;;;16.10;5.80;;;;;;;;;;5000669;28;20069;-77
2022/09/21 14:39:59;;;;;;;12.70;5.22;;;;;;;;;;5037216;28;20041;-78
2022/09/21 14:42:27;;;;;;;11.52;4.20;;;;;;;;;;5043349;28;20065;-78
2022/09/21 14:44:55;;;;;;;18.25;5.55;;;;;;;;;;5025792;28;20032;-78
2022/09/21 14:47:43;;;;;;;22.95;5.47;;;;;;;;;;5027845;28;20040;-78
2022/09/21 14:50:29;;;;;;;11.38;4.60;;;;;;;;;;5011183;28;20036;-78
2022/09/21 14:53:07;;;;;;;12.88;5.22;;;;;;;;;;5019431;28;20033;-78
2022/09/21 14:55:41;;;;;;;12.63;4.93;;;;;;;;;;5052448;28;20068;-78
2022/09/21 14:58:23;;;;;;;13.20;4.55;;;;;;;;;;5053068;28;20029;-78
2022/09/21 15:00:49;;;;;;;14.68;4.53;;;;;;;;;;5035452;28;20147;-78
2022/09/21 15:03:56;;;;;;;10.48;4.80;;;;;;;;;;5002752;28;20550;-78
2022/09/21 15:12:45;;;;;;;12.15;4.18;;;;;;;;;;5058618;28;20532;-78
2022/09/21 15:15:40;;;;;;;9.75;3.80;;;;;;;;;;5053859;28;20029;-78
2022/09/21 15:18:18;;;;;;;10.82;3.95;;;;;;;;;;5029607;28;20033;-78
2022/09/21 15:20:52;;;;;;;12.82;4.68;;;;;;;;;;5050819;28;20025;-78
2022/09/21 15:23:18;;;;;;;8.23;3.45;;;;;;;;;;5022814;28;20033;-78